Time;durP1;ratioP1;P1;durP2;ratioP2;P2;SDS_P1;SDS_P2;PMS_P1;PMS_P2;Temp;Humidity;BMP_temperature;BMP_pressure;BME280_temperature;BME280_humidity;BME280_pressure;Samples;Min_cycle;Max_cycle;Signal;HPM_P1;HPM_P2
2021/04/28 00:01:49;;;;;;;4.90;3.90;;;;;;;;;;5041867;28;37477;-80
2021/04/28 00:04:15;;;;;;;10.30;4.10;;;;;;;;;;5048849;28;39168;-80
2021/04/28 00:06:42;;;;;;;6.27;3.70;;;;;;;;;;5074485;28;38787;-80
2021/04/28 00:09:09;;;;;;;7.27;3.70;;;;;;;;;;5053695;28;37447;-80
2021/04/28 00:11:35;;;;;;;6.17;3.30;;;;;;;;;;5049357;28;38757;-80
2021/04/28 00:14:03;;;;;;;8.67;3.47;;;;;;;;;;5072373;28;39275;-80
2021/04/28 00:16:29;;;;;;;4.00;3.40;;;;;;;;;;5055280;28;39174;-80
2021/04/28 00:18:55;;;;;;;7.07;3.77;;;;;;;;;;5057724;28;35691;-80
2021/04/28 00:21:22;;;;;;;7.40;3.60;;;;;;;;;;5055508;28;39455;-80
2021/04/28 00:23:48;;;;;;;5.97;3.50;;;;;;;;;;5053217;28;40277;-80
2021/04/28 00:26:16;;;;;;;8.27;3.60;;;;;;;;;;5073906;28;39606;-81
2021/04/28 00:28:43;;;;;;;8.17;3.73;;;;;;;;;;5059782;28;36032;-80
2021/04/28 00:31:10;;;;;;;4.63;3.30;;;;;;;;;;5050085;28;39564;-80
2021/04/28 00:33:37;;;;;;;4.13;3.37;;;;;;;;;;5054416;28;39968;-80
2021/04/28 00:36:03;;;;;;;7.10;3.60;;;;;;;;;;5051070;28;39432;-80
2021/04/28 00:38:31;;;;;;;9.93;3.53;;;;;;;;;;5056617;28;37119;-80
2021/04/28 00:40:57;;;;;;;5.77;3.50;;;;;;;;;;5069951;28;39205;-80
2021/04/28 00:43:24;;;;;;;6.33;3.53;;;;;;;;;;5053582;28;39152;-80
2021/04/28 00:45:57;;;;;;;5.97;3.43;;;;;;;;;;5077535;28;38725;-80
2021/04/28 00:48:24;;;;;;;8.17;3.30;;;;;;;;;;5082155;28;37633;-80
2021/04/28 00:50:51;;;;;;;5.23;3.47;;;;;;;;;;5053813;28;37967;-81
2021/04/28 00:53:19;;;;;;;6.33;3.67;;;;;;;;;;5061130;28;37719;-80
2021/04/28 00:55:47;;;;;;;6.70;3.83;;;;;;;;;;5055791;28;37425;-80
2021/04/28 00:58:13;;;;;;;7.00;4.07;;;;;;;;;;5047623;28;36765;-80
2021/04/28 01:00:41;;;;;;;9.63;3.67;;;;;;;;;;5050348;28;40886;-80
2021/04/28 01:03:08;;;;;;;5.63;3.93;;;;;;;;;;5055440;28;40881;-80
2021/04/28 01:05:35;;;;;;;7.13;3.60;;;;;;;;;;5053750;28;39433;-80
2021/04/28 01:08:01;;;;;;;8.77;3.93;;;;;;;;;;5055125;28;35981;-79
2021/04/28 01:10:29;;;;;;;6.20;3.70;;;;;;;;;;5071650;28;48118;-80
2021/04/28 01:12:56;;;;;;;7.30;3.70;;;;;;;;;;5051594;28;39004;-80
2021/04/28 01:15:27;;;;;;;5.87;3.53;;;;;;;;;;5049559;28;37190;-80
2021/04/28 01:17:54;;;;;;;4.70;3.43;;;;;;;;;;5067756;28;38296;-80
2021/04/28 01:20:21;;;;;;;7.83;4.00;;;;;;;;;;5052402;28;42379;-79
2021/04/28 01:22:48;;;;;;;4.93;3.70;;;;;;;;;;5047385;28;38009;-80
2021/04/28 01:25:20;;;;;;;4.27;3.80;;;;;;;;;;5052194;28;39153;-81
2021/04/28 01:27:48;;;;;;;6.53;3.70;;;;;;;;;;5054638;28;37464;-80
2021/04/28 01:30:15;;;;;;;6.30;3.60;;;;;;;;;;5072973;28;39174;-80
2021/04/28 01:32:45;;;;;;;5.50;3.60;;;;;;;;;;5053104;28;39798;-78
2021/04/28 01:35:14;;;;;;;6.40;3.77;;;;;;;;;;5046539;28;37289;-80
2021/04/28 01:37:41;;;;;;;5.77;4.00;;;;;;;;;;5054683;28;37036;-81
2021/04/28 01:40:08;;;;;;;5.90;3.73;;;;;;;;;;5060690;28;39655;-80
2021/04/28 01:42:34;;;;;;;6.53;4.00;;;;;;;;;;5079697;28;39237;-80
2021/04/28 01:45:01;;;;;;;5.70;3.93;;;;;;;;;;5056734;28;37185;-81
2021/04/28 01:47:28;;;;;;;5.33;3.93;;;;;;;;;;5075075;28;39117;-80
2021/04/28 01:49:54;;;;;;;4.87;4.00;;;;;;;;;;5076053;28;39301;-80
2021/04/28 01:52:21;;;;;;;11.00;3.77;;;;;;;;;;5075351;28;39205;-80
2021/04/28 01:54:48;;;;;;;5.27;4.20;;;;;;;;;;5055215;28;37859;-80
2021/04/28 01:57:15;;;;;;;5.83;3.80;;;;;;;;;;5051559;28;35611;-80
2021/04/28 01:59:42;;;;;;;5.57;3.30;;;;;;;;;;5049244;28;39794;-80
2021/04/28 02:02:09;;;;;;;7.47;3.50;;;;;;;;;;5055938;28;38818;-80
2021/04/28 02:04:36;;;;;;;4.73;3.57;;;;;;;;;;5036109;28;39015;-80
2021/04/28 02:07:03;;;;;;;4.80;3.67;;;;;;;;;;5059548;28;38475;-79
2021/04/28 02:09:30;;;;;;;9.57;3.97;;;;;;;;;;5039001;28;40007;-80
2021/04/28 02:11:57;;;;;;;6.33;3.97;;;;;;;;;;5059218;28;39916;-80
2021/04/28 02:14:23;;;;;;;5.70;3.83;;;;;;;;;;5048836;28;36916;-80
2021/04/28 02:16:50;;;;;;;5.27;3.73;;;;;;;;;;5050302;28;37429;-79
2021/04/28 02:19:17;;;;;;;10.43;3.93;;;;;;;;;;5046987;28;39104;-79
2021/04/28 02:21:44;;;;;;;5.33;4.17;;;;;;;;;;5050566;28;39200;-79
2021/04/28 02:24:14;;;;;;;5.87;4.30;;;;;;;;;;5050712;28;38378;-79
2021/04/28 02:26:41;;;;;;;5.40;3.97;;;;;;;;;;5047464;28;36623;-79
2021/04/28 02:29:07;;;;;;;6.90;4.27;;;;;;;;;;5039264;28;38619;-79
2021/04/28 02:31:34;;;;;;;8.70;4.30;;;;;;;;;;5042072;28;39667;-80
2021/04/28 02:34:02;;;;;;;6.17;4.50;;;;;;;;;;5052303;28;37675;-80
2021/04/28 02:36:31;;;;;;;6.80;3.93;;;;;;;;;;5050022;28;47158;-80
2021/04/28 02:39:30;;;;;;;5.87;4.20;;;;;;;;;;5050790;28;40746;-80
2021/04/28 02:41:56;;;;;;;4.23;3.60;;;;;;;;;;5023196;28;47972;-80
2021/04/28 02:44:25;;;;;;;3.80;3.37;;;;;;;;;;5050588;28;38731;-79
2021/04/28 02:46:53;;;;;;;8.53;4.07;;;;;;;;;;5048513;28;36565;-80
2021/04/28 02:49:20;;;;;;;7.50;3.53;;;;;;;;;;5054094;28;39272;-80
2021/04/28 02:51:47;;;;;;;5.10;3.97;;;;;;;;;;5058886;28;38756;-80
2021/04/28 02:54:14;;;;;;;7.73;4.33;;;;;;;;;;5059683;28;37391;-80
2021/04/28 02:56:43;;;;;;;5.77;4.23;;;;;;;;;;5041419;28;38127;-79
2021/04/28 02:59:09;;;;;;;7.90;3.97;;;;;;;;;;5047935;28;40691;-80
2021/04/28 03:01:36;;;;;;;7.27;4.60;;;;;;;;;;5043404;28;39101;-80
2021/04/28 03:04:04;;;;;;;8.37;3.93;;;;;;;;;;5030891;28;39031;-79
2021/04/28 03:06:31;;;;;;;7.80;4.33;;;;;;;;;;5055449;28;37243;-79
2021/04/28 03:08:57;;;;;;;9.27;4.57;;;;;;;;;;5043115;28;39694;-80
2021/04/28 03:11:24;;;;;;;4.97;3.70;;;;;;;;;;5044828;28;39002;-79
2021/04/28 03:13:51;;;;;;;7.23;4.27;;;;;;;;;;5030590;28;40997;-79
2021/04/28 03:16:17;;;;;;;4.47;3.83;;;;;;;;;;5043623;28;35270;-80
2021/04/28 03:18:43;;;;;;;5.47;4.30;;;;;;;;;;5046361;28;38611;-80
2021/04/28 03:21:13;;;;;;;7.17;3.93;;;;;;;;;;5034362;28;39947;-80
2021/04/28 03:23:39;;;;;;;5.20;3.90;;;;;;;;;;5045800;28;39178;-80
2021/04/28 03:26:10;;;;;;;10.97;4.37;;;;;;;;;;5036599;28;36119;-80
2021/04/28 03:28:36;;;;;;;5.70;4.07;;;;;;;;;;5035395;28;38297;-80
2021/04/28 03:31:03;;;;;;;6.03;4.23;;;;;;;;;;5040509;28;38922;-79
2021/04/28 03:33:29;;;;;;;5.57;3.67;;;;;;;;;;5042937;28;40126;-80
2021/04/28 03:35:55;;;;;;;8.43;3.70;;;;;;;;;;5027385;28;36320;-80
2021/04/28 03:38:22;;;;;;;8.33;4.50;;;;;;;;;;5026728;28;40644;-80
2021/04/28 03:40:48;;;;;;;14.37;4.37;;;;;;;;;;5043898;28;39749;-80
2021/04/28 03:43:14;;;;;;;8.13;4.03;;;;;;;;;;5046148;28;39463;-79
2021/04/28 03:45:41;;;;;;;5.17;3.73;;;;;;;;;;5060139;28;38179;-79
2021/04/28 03:48:07;;;;;;;5.23;4.30;;;;;;;;;;5047191;28;40150;-79
2021/04/28 03:50:34;;;;;;;10.67;4.87;;;;;;;;;;5045397;28;38817;-81
2021/04/28 03:53:00;;;;;;;6.53;4.40;;;;;;;;;;5048509;28;37828;-79
2021/04/28 03:55:27;;;;;;;5.73;4.50;;;;;;;;;;5045079;28;47652;-80
2021/04/28 03:57:53;;;;;;;13.47;4.43;;;;;;;;;;5065015;28;43219;-80
2021/04/28 04:00:20;;;;;;;7.93;4.37;;;;;;;;;;5048121;28;39414;-79
2021/04/28 04:02:46;;;;;;;8.53;4.50;;;;;;;;;;5045173;28;38975;-79
2021/04/28 04:05:13;;;;;;;9.30;4.73;;;;;;;;;;5042791;28;37402;-81
2021/04/28 04:07:39;;;;;;;9.93;4.83;;;;;;;;;;5035272;28;39018;-79
2021/04/28 04:10:06;;;;;;;6.43;4.20;;;;;;;;;;5023946;28;37255;-79
2021/04/28 04:12:32;;;;;;;14.37;4.60;;;;;;;;;;5049303;28;38970;-80
2021/04/28 04:14:59;;;;;;;5.83;4.40;;;;;;;;;;5046738;28;37726;-79
2021/04/28 04:17:25;;;;;;;10.97;4.37;;;;;;;;;;5057212;28;40431;-79
2021/04/28 04:19:54;;;;;;;6.00;4.77;;;;;;;;;;5063983;28;39702;-79
2021/04/28 04:22:20;;;;;;;8.90;4.73;;;;;;;;;;5044122;28;39341;-79
2021/04/28 04:24:46;;;;;;;6.87;4.60;;;;;;;;;;5046025;28;36692;-80
2021/04/28 04:27:13;;;;;;;6.60;4.80;;;;;;;;;;5064091;28;40165;-80
2021/04/28 04:29:39;;;;;;;8.70;4.90;;;;;;;;;;5042971;28;39901;-80
2021/04/28 04:32:06;;;;;;;7.70;4.67;;;;;;;;;;5050914;28;38843;-80
2021/04/28 04:34:32;;;;;;;8.83;5.40;;;;;;;;;;5069687;28;37109;-80
2021/04/28 04:36:59;;;;;;;9.47;5.13;;;;;;;;;;5066141;28;38651;-79
2021/04/28 04:39:25;;;;;;;9.50;4.97;;;;;;;;;;5045752;28;39230;-79
2021/04/28 04:41:52;;;;;;;9.77;4.50;;;;;;;;;;5062450;28;38571;-80
2021/04/28 04:44:18;;;;;;;11.70;4.67;;;;;;;;;;5062064;28;37359;-80
2021/04/28 04:46:44;;;;;;;7.83;4.67;;;;;;;;;;5044141;28;39313;-80
2021/04/28 04:49:11;;;;;;;9.30;5.20;;;;;;;;;;5067527;28;39195;-79
2021/04/28 04:51:38;;;;;;;7.57;5.00;;;;;;;;;;5068619;28;38388;-80
2021/04/28 04:54:04;;;;;;;12.20;5.47;;;;;;;;;;5046486;28;35758;-80
2021/04/28 04:56:31;;;;;;;7.13;5.60;;;;;;;;;;5043832;28;39944;-80
2021/04/28 04:58:57;;;;;;;6.87;4.87;;;;;;;;;;5066471;28;38642;-79
2021/04/28 05:01:23;;;;;;;7.20;4.90;;;;;;;;;;5046072;28;38536;-79
2021/04/28 05:03:50;;;;;;;9.67;5.77;;;;;;;;;;5066881;28;35746;-80
2021/04/28 05:06:16;;;;;;;11.03;5.87;;;;;;;;;;5046507;28;37822;-79
2021/04/28 05:08:43;;;;;;;10.70;5.03;;;;;;;;;;5049655;28;38132;-80
2021/04/28 05:11:09;;;;;;;13.70;5.53;;;;;;;;;;5057687;28;39047;-79
2021/04/28 05:13:35;;;;;;;6.70;5.10;;;;;;;;;;5045578;28;37812;-79
2021/04/28 05:16:02;;;;;;;10.30;5.13;;;;;;;;;;5061788;28;40091;-79
2021/04/28 05:18:28;;;;;;;8.47;4.43;;;;;;;;;;5059515;28;48961;-80
2021/04/28 05:20:54;;;;;;;8.03;5.40;;;;;;;;;;5044465;28;38251;-79
2021/04/28 05:23:21;;;;;;;10.83;5.27;;;;;;;;;;5065829;28;35520;-80
2021/04/28 05:25:47;;;;;;;10.33;5.20;;;;;;;;;;5048471;28;40915;-79
2021/04/28 05:28:14;;;;;;;11.00;6.30;;;;;;;;;;5060935;28;36006;-80
2021/04/28 05:30:41;;;;;;;7.73;5.97;;;;;;;;;;5065715;28;36900;-80
2021/04/28 05:33:10;;;;;;;14.67;6.23;;;;;;;;;;5059333;28;35384;-78
2021/04/28 05:35:36;;;;;;;13.23;6.03;;;;;;;;;;5076057;28;37615;-79
2021/04/28 05:38:03;;;;;;;9.27;6.10;;;;;;;;;;5044155;28;40384;-78
2021/04/28 05:40:29;;;;;;;13.10;7.10;;;;;;;;;;5041600;28;38842;-79
2021/04/28 05:42:56;;;;;;;10.50;5.53;;;;;;;;;;5061309;28;37208;-79
2021/04/28 05:45:22;;;;;;;17.53;6.43;;;;;;;;;;5045297;28;40446;-79
2021/04/28 05:47:49;;;;;;;11.40;5.90;;;;;;;;;;5044701;28;39096;-79
2021/04/28 05:50:16;;;;;;;12.97;6.07;;;;;;;;;;5067354;28;39542;-80
2021/04/28 05:52:43;;;;;;;13.73;6.10;;;;;;;;;;5047989;28;38506;-79
2021/04/28 05:55:10;;;;;;;6.80;5.37;;;;;;;;;;5045846;28;40964;-78
2021/04/28 05:57:36;;;;;;;10.70;6.40;;;;;;;;;;5067770;28;40146;-79
2021/04/28 06:00:11;;;;;;;9.97;5.70;;;;;;;;;;5065315;28;38895;-79
2021/04/28 06:02:38;;;;;;;13.27;5.97;;;;;;;;;;5057914;28;37449;-81
2021/04/28 06:05:05;;;;;;;10.13;5.63;;;;;;;;;;5068253;28;40238;-79
2021/04/28 06:07:31;;;;;;;11.70;5.40;;;;;;;;;;5075302;28;37545;-80
2021/04/28 06:09:57;;;;;;;7.83;5.70;;;;;;;;;;5081643;28;39911;-80
2021/04/28 06:12:24;;;;;;;10.07;5.50;;;;;;;;;;5060937;28;37292;-80
2021/04/28 06:14:50;;;;;;;9.90;5.17;;;;;;;;;;5072311;28;39007;-79
2021/04/28 06:17:18;;;;;;;7.83;5.57;;;;;;;;;;5047634;28;38875;-80
2021/04/28 06:19:44;;;;;;;11.13;5.60;;;;;;;;;;5048491;28;39300;-80
2021/04/28 06:22:10;;;;;;;8.53;6.00;;;;;;;;;;5068865;28;38098;-79
2021/04/28 06:24:37;;;;;;;12.47;5.20;;;;;;;;;;5073022;28;40063;-80
2021/04/28 06:27:04;;;;;;;12.53;5.03;;;;;;;;;;5055309;28;39584;-79
2021/04/28 06:29:30;;;;;;;10.80;5.60;;;;;;;;;;5056093;28;38922;-79
2021/04/28 06:31:57;;;;;;;9.93;5.77;;;;;;;;;;5051087;28;37021;-80
2021/04/28 06:34:24;;;;;;;14.17;5.60;;;;;;;;;;5067243;28;40512;-80
2021/04/28 06:36:50;;;;;;;8.40;5.50;;;;;;;;;;5067753;28;36506;-79
2021/04/28 06:39:17;;;;;;;8.67;5.27;;;;;;;;;;5073225;28;39564;-80
2021/04/28 06:41:43;;;;;;;8.47;5.27;;;;;;;;;;5057902;28;37040;-80
2021/04/28 06:44:10;;;;;;;11.30;5.30;;;;;;;;;;5065570;28;38182;-80
2021/04/28 06:46:36;;;;;;;8.33;5.40;;;;;;;;;;5051633;28;37964;-80
2021/04/28 06:49:03;;;;;;;14.97;6.17;;;;;;;;;;5054597;28;39899;-79
2021/04/28 06:51:29;;;;;;;9.07;5.40;;;;;;;;;;5053414;28;37154;-80
2021/04/28 06:53:55;;;;;;;8.13;5.30;;;;;;;;;;5044027;28;39171;-79
2021/04/28 06:56:22;;;;;;;9.50;5.22;;;;;;;;;;5050544;28;37858;-79
2021/04/28 06:58:50;;;;;;;11.33;5.53;;;;;;;;;;5065219;28;38399;-80
2021/04/28 07:01:17;;;;;;;13.33;6.00;;;;;;;;;;5055045;28;37980;-80
2021/04/28 07:03:43;;;;;;;11.32;5.78;;;;;;;;;;5059910;28;39682;-80
2021/04/28 07:06:11;;;;;;;10.10;6.43;;;;;;;;;;5054240;28;38836;-80
2021/04/28 07:08:38;;;;;;;9.90;5.82;;;;;;;;;;5049349;28;37507;-79
2021/04/28 07:11:05;;;;;;;8.15;6.35;;;;;;;;;;5065731;28;37048;-79
2021/04/28 07:13:31;;;;;;;8.57;6.13;;;;;;;;;;5052660;28;38687;-79
2021/04/28 07:15:58;;;;;;;10.80;6.20;;;;;;;;;;5041341;28;38814;-80
2021/04/28 07:18:24;;;;;;;10.07;6.30;;;;;;;;;;5041297;28;38429;-81
2021/04/28 07:20:50;;;;;;;8.38;6.25;;;;;;;;;;5055617;28;37611;-81
2021/04/28 07:23:17;;;;;;;10.70;6.18;;;;;;;;;;5041619;28;39058;-79
2021/04/28 07:25:44;;;;;;;9.65;6.93;;;;;;;;;;5039462;28;39299;-80
2021/04/28 07:28:10;;;;;;;11.82;7.38;;;;;;;;;;5047928;28;37634;-80
2021/04/28 07:30:37;;;;;;;11.60;6.05;;;;;;;;;;5051140;28;38440;-80
2021/04/28 07:33:04;;;;;;;8.63;5.95;;;;;;;;;;5061306;28;39859;-80
2021/04/28 07:35:30;;;;;;;6.57;5.38;;;;;;;;;;5058782;28;39306;-79
2021/04/28 07:38:02;;;;;;;10.73;6.38;;;;;;;;;;5068178;28;39352;-81
2021/04/28 07:40:29;;;;;;;9.88;6.40;;;;;;;;;;5064087;28;48112;-81
2021/04/28 07:42:55;;;;;;;10.02;6.38;;;;;;;;;;5076476;28;37641;-81
2021/04/28 07:45:24;;;;;;;7.75;5.53;;;;;;;;;;5066807;28;37954;-81
2021/04/28 07:47:51;;;;;;;11.48;6.93;;;;;;;;;;5071261;28;38509;-81
2021/04/28 07:50:18;;;;;;;11.88;6.47;;;;;;;;;;5058174;28;36589;-80
2021/04/28 07:52:50;;;;;;;10.38;5.90;;;;;;;;;;5067386;28;39984;-81
2021/04/28 07:55:17;;;;;;;;;;;;;;;;;;5057891;28;39033;-80
2021/04/28 07:57:53;;;;;;;12.40;6.45;;;;;;;;;;5057591;28;38446;-81
2021/04/28 08:00:20;;;;;;;17.25;6.60;;;;;;;;;;5065782;28;36914;-81
2021/04/28 08:02:50;;;;;;;10.73;7.22;;;;;;;;;;5069453;28;38888;-81
2021/04/28 08:05:17;;;;;;;10.18;6.68;;;;;;;;;;5045949;28;37266;-81
2021/04/28 08:07:44;;;;;;;8.73;6.47;;;;;;;;;;5061592;28;37838;-81
2021/04/28 08:10:11;;;;;;;9.95;6.32;;;;;;;;;;5046392;28;37023;-77
2021/04/28 08:12:38;;;;;;;8.23;5.45;;;;;;;;;;5055819;28;38013;-80
2021/04/28 08:15:06;;;;;;;11.60;6.45;;;;;;;;;;5030752;28;39748;-78
2021/04/28 08:17:33;;;;;;;19.02;7.82;;;;;;;;;;5031928;28;38710;-78
2021/04/28 08:20:01;;;;;;;8.77;7.25;;;;;;;;;;5033735;28;38113;-77
2021/04/28 08:22:27;;;;;;;12.13;6.75;;;;;;;;;;5058116;28;46767;-80
2021/04/28 08:24:54;;;;;;;10.00;6.35;;;;;;;;;;5068874;28;36831;-81
2021/04/28 08:27:23;;;;;;;10.43;6.18;;;;;;;;;;5062684;28;37840;-80
2021/04/28 08:29:49;;;;;;;13.77;7.22;;;;;;;;;;5068337;28;37223;-81
2021/04/28 08:32:17;;;;;;;9.93;6.50;;;;;;;;;;5052353;28;37875;-80
2021/04/28 08:34:44;;;;;;;8.63;6.57;;;;;;;;;;5057122;28;38029;-80
2021/04/28 08:37:10;;;;;;;12.77;6.50;;;;;;;;;;5055594;28;38839;-80
2021/04/28 08:39:37;;;;;;;9.98;6.38;;;;;;;;;;5062390;28;36244;-79
2021/04/28 08:42:04;;;;;;;8.73;6.57;;;;;;;;;;5059843;28;38633;-80
2021/04/28 08:44:31;;;;;;;8.43;6.40;;;;;;;;;;5058903;28;37782;-80
2021/04/28 08:46:58;;;;;;;10.18;7.13;;;;;;;;;;5056926;28;37823;-80
2021/04/28 08:49:24;;;;;;;8.93;6.20;;;;;;;;;;5063209;28;36219;-81
2021/04/28 08:51:52;;;;;;;11.43;6.80;;;;;;;;;;5072652;28;38931;-81
2021/04/28 08:54:19;;;;;;;8.00;6.43;;;;;;;;;;5066068;28;37550;-81
2021/04/28 08:56:55;;;;;;;11.52;6.85;;;;;;;;;;5057702;28;37689;-81
2021/04/28 08:59:22;;;;;;;10.60;6.18;;;;;;;;;;5058279;28;36982;-78
2021/04/28 09:01:49;;;;;;;10.25;6.75;;;;;;;;;;5049164;28;37755;-81
2021/04/28 09:04:19;;;;;;;11.00;6.47;;;;;;;;;;5046450;28;40242;-77
2021/04/28 09:06:51;;;;;;;10.85;6.80;;;;;;;;;;5086935;22;38570;31
2021/04/28 09:09:19;;;;;;;14.50;6.90;;;;;;;;;;5041535;28;36746;-77
2021/04/28 09:11:57;;;;;;;9.02;6.10;;;;;;;;;;5006599;28;37796;-77
2021/04/28 09:14:32;;;;;;;8.10;6.40;;;;;;;;;;5020357;28;38719;-80
2021/04/28 09:17:01;;;;;;;9.82;6.85;;;;;;;;;;5054689;28;39155;-81
2021/04/28 09:19:57;;;;;;;9.93;6.45;;;;;;;;;;5044281;28;48718;-81
2021/04/28 09:22:23;;;;;;;13.75;7.20;;;;;;;;;;5025589;28;38884;-80
2021/04/28 09:24:56;;;;;;;13.32;7.03;;;;;;;;;;5036667;28;39114;-80
2021/04/28 09:27:37;;;;;;;10.70;6.95;;;;;;;;;;5058925;23;38607;-81
2021/04/28 09:30:05;;;;;;;12.23;7.22;;;;;;;;;;5043037;28;36332;-79
2021/04/28 09:32:32;;;;;;;9.20;6.60;;;;;;;;;;5043538;28;37875;-80
2021/04/28 09:35:18;;;;;;;9.68;6.97;;;;;;;;;;5042572;28;38836;-81
2021/04/28 09:38:00;;;;;;;10.40;6.35;;;;;;;;;;5066682;28;47476;-81
2021/04/28 09:44:10;;;;;;;;;;;;;;;;;;;;;
2021/04/28 09:47:04;;;;;;;9.75;7.50;;;;;;;;;;5065339;28;40415;-80
2021/04/28 09:49:52;;;;;;;8.25;6.07;;;;;;;;;;5005046;28;38607;-80
2021/04/28 09:52:34;;;;;;;11.77;7.35;;;;;;;;;;4982220;28;36458;-80
2021/04/28 09:55:02;;;;;;;9.93;6.95;;;;;;;;;;5056129;28;39382;-79
2021/04/28 09:57:34;;;;;;;10.30;7.00;;;;;;;;;;5052203;28;48145;-79
2021/04/28 10:00:01;;;;;;;11.75;6.55;;;;;;;;;;5034919;28;37548;-80
2021/04/28 10:02:29;;;;;;;9.70;7.07;;;;;;;;;;5057153;28;37601;-80
2021/04/28 10:05:14;;;;;;;11.82;7.68;;;;;;;;;;5035142;28;37825;-80
2021/04/28 10:07:44;;;;;;;11.27;7.13;;;;;;;;;;5035984;28;47194;-79
2021/04/28 10:10:11;;;;;;;11.40;6.43;;;;;;;;;;5029234;28;37429;-79
2021/04/28 10:12:38;;;;;;;10.68;7.28;;;;;;;;;;5047611;28;37125;-79
2021/04/28 10:15:05;;;;;;;7.55;6.80;;;;;;;;;;5054351;28;38973;-79
2021/04/28 10:17:31;;;;;;;7.70;7.00;;;;;;;;;;5034561;28;38044;-79
2021/04/28 10:19:59;;;;;;;9.82;7.53;;;;;;;;;;5028147;28;39154;-79
2021/04/28 10:22:25;;;;;;;10.85;7.60;;;;;;;;;;5052457;28;36966;-80
2021/04/28 10:24:53;;;;;;;12.05;7.25;;;;;;;;;;5036373;28;39321;-77
2021/04/28 10:27:20;;;;;;;10.20;7.07;;;;;;;;;;5053664;28;38817;-79
2021/04/28 10:29:47;;;;;;;9.10;7.15;;;;;;;;;;5038386;28;38056;-79
2021/04/28 10:32:15;;;;;;;11.35;7.00;;;;;;;;;;5036333;28;37042;-80
2021/04/28 10:35:01;;;;;;;9.65;7.50;;;;;;;;;;5038325;28;37863;-79
2021/04/28 10:37:32;;;;;;;15.45;7.45;;;;;;;;;;5028928;28;47209;-79
2021/04/28 10:39:58;;;;;;;13.05;7.07;;;;;;;;;;5038835;28;38076;-79
2021/04/28 10:42:27;;;;;;;12.45;6.85;;;;;;;;;;5057345;28;38602;-80
2021/04/28 10:44:53;;;;;;;11.52;8.02;;;;;;;;;;5033705;28;38053;-80
2021/04/28 10:47:25;;;;;;;10.90;7.45;;;;;;;;;;5067682;28;39396;-78
2021/04/28 10:49:52;;;;;;;;;;;;;;;;;;5066527;28;38690;-79
2021/04/28 10:52:31;;;;;;;12.68;7.70;;;;;;;;;;5039841;28;36430;-79
2021/04/28 10:54:58;;;;;;;14.10;7.80;;;;;;;;;;5062485;28;39951;-79
2021/04/28 10:57:41;;;;;;;11.70;8.05;;;;;;;;;;5057946;28;37686;-79
2021/04/28 11:02:39;;;;;;;10.32;7.80;;;;;;;;;;5084386;28;20045;-80
2021/04/28 11:05:06;;;;;;;8.35;7.45;;;;;;;;;;5085017;28;40261;-80
2021/04/28 11:07:42;;;;;;;11.93;7.05;;;;;;;;;;5056283;28;38077;-80
2021/04/28 11:10:49;;;;;;;10.75;7.40;;;;;;;;;;5081781;28;39704;-80
2021/04/28 11:13:20;;;;;;;8.52;7.05;;;;;;;;;;5007422;28;36256;-79
2021/04/28 11:15:50;;;;;;;7.57;6.77;;;;;;;;;;4988146;28;39260;-79
2021/04/28 11:19:02;;;;;;;8.00;7.20;;;;;;;;;;5040908;28;38740;-80
2021/04/28 11:21:30;;;;;;;9.00;7.28;;;;;;;;;;5095255;28;48039;-80
2021/04/28 11:24:09;;;;;;;11.05;7.85;;;;;;;;;;5071646;28;37691;-80
2021/04/28 11:26:36;;;;;;;12.70;8.60;;;;;;;;;;5057303;28;48293;-78
2021/04/28 11:29:04;;;;;;;10.68;8.25;;;;;;;;;;5038043;28;38390;-78
2021/04/28 11:31:42;;;;;;;12.73;8.32;;;;;;;;;;5048336;28;47115;-78
2021/04/28 11:34:17;;;;;;;13.00;7.93;;;;;;;;;;5068357;28;36753;-78
2021/04/28 11:36:57;;;;;;;11.25;7.25;;;;;;;;;;5059076;28;38827;-79
2021/04/28 11:39:52;;;;;;;9.48;7.35;;;;;;;;;;5057738;28;39092;-79
2021/04/28 11:42:19;;;;;;;9.48;8.05;;;;;;;;;;5066121;28;39798;-79
2021/04/28 11:44:47;;;;;;;9.18;7.55;;;;;;;;;;5058494;28;35981;-79
2021/04/28 11:47:15;;;;;;;10.35;7.53;;;;;;;;;;5059425;28;37781;-79
2021/04/28 11:49:49;;;;;;;10.57;8.07;;;;;;;;;;5059061;28;38177;-79
2021/04/28 11:52:16;;;;;;;12.52;7.80;;;;;;;;;;5076283;28;38614;-79
2021/04/28 11:54:45;;;;;;;9.38;7.88;;;;;;;;;;5083161;28;37236;-79
2021/04/28 11:57:12;;;;;;;11.27;7.72;;;;;;;;;;5064193;28;38270;-78
2021/04/28 11:59:39;;;;;;;11.27;7.68;;;;;;;;;;5081022;28;39653;-79
2021/04/28 12:02:09;;;;;;;12.05;7.85;;;;;;;;;;5058568;28;37161;-79
2021/04/28 12:04:37;;;;;;;12.55;8.45;;;;;;;;;;5056659;28;36851;-79
2021/04/28 12:07:04;;;;;;;10.25;8.57;;;;;;;;;;5056459;28;37735;-78
2021/04/28 12:09:46;;;;;;;11.55;7.60;;;;;;;;;;5052589;28;39386;-78
2021/04/28 12:12:14;;;;;;;12.57;8.93;;;;;;;;;;5065292;28;39339;-79
2021/04/28 12:14:43;;;;;;;11.85;8.20;;;;;;;;;;5067127;28;35883;-77
2021/04/28 12:17:09;;;;;;;11.63;8.32;;;;;;;;;;5064669;28;38250;-79
2021/04/28 12:19:36;;;;;;;11.13;9.15;;;;;;;;;;5062026;28;39272;-78
2021/04/28 12:22:09;;;;;;;13.02;8.82;;;;;;;;;;5067491;28;38583;-78
2021/04/28 12:24:36;;;;;;;11.43;8.13;;;;;;;;;;5071505;28;37341;-79
2021/04/28 12:27:02;;;;;;;9.30;8.13;;;;;;;;;;5068615;28;38299;-78
2021/04/28 12:29:29;;;;;;;14.95;8.95;;;;;;;;;;5067476;28;38919;-79
2021/04/28 12:31:55;;;;;;;14.00;9.10;;;;;;;;;;5066009;28;38778;-80
2021/04/28 12:34:21;;;;;;;14.35;8.82;;;;;;;;;;5072514;28;35472;-79
2021/04/28 12:36:48;;;;;;;12.18;8.88;;;;;;;;;;5070845;28;39989;-80
2021/04/28 12:39:24;;;;;;;16.02;9.32;;;;;;;;;;5066252;28;37733;-80
2021/04/28 12:41:51;;;;;;;11.63;8.50;;;;;;;;;;5092676;28;39394;-80
2021/04/28 12:44:17;;;;;;;16.48;8.80;;;;;;;;;;5082097;28;38060;-79
2021/04/28 12:46:45;;;;;;;11.98;9.02;;;;;;;;;;5065199;28;39088;-80
2021/04/28 12:49:12;;;;;;;11.25;8.95;;;;;;;;;;5078367;28;38571;-80
2021/04/28 12:51:45;;;;;;;15.00;8.20;;;;;;;;;;5088326;28;39580;-80
2021/04/28 12:54:12;;;;;;;11.88;9.25;;;;;;;;;;5072050;28;36565;-80
2021/04/28 12:56:42;;;;;;;14.00;9.93;;;;;;;;;;5064762;28;38912;-79
2021/04/28 12:59:16;;;;;;;12.88;8.70;;;;;;;;;;5081876;28;39880;-78
2021/04/28 13:01:43;;;;;;;10.38;8.93;;;;;;;;;;5063324;28;37593;-79
2021/04/28 13:04:21;;;;;;;12.45;8.48;;;;;;;;;;5070817;28;37363;-78
2021/04/28 13:06:48;;;;;;;10.23;9.15;;;;;;;;;;5063311;28;36981;-80
2021/04/28 13:09:15;;;;;;;11.73;8.52;;;;;;;;;;5061125;28;37573;-80
2021/04/28 13:11:45;;;;;;;13.23;8.95;;;;;;;;;;5047266;28;37650;-80
2021/04/28 13:14:16;;;;;;;12.63;9.32;;;;;;;;;;5076174;28;36687;-80
2021/04/28 13:16:42;;;;;;;13.68;9.43;;;;;;;;;;5056874;28;40189;-80
2021/04/28 13:19:13;;;;;;;10.63;9.18;;;;;;;;;;5066761;28;37847;-79
2021/04/28 13:21:41;;;;;;;12.27;10.02;;;;;;;;;;5067560;28;38647;-80
2021/04/28 13:24:30;;;;;;;15.68;10.23;;;;;;;;;;5091499;28;37161;-80
2021/04/28 13:27:00;;;;;;;14.75;9.95;;;;;;;;;;5069423;28;38425;-80
2021/04/28 13:29:27;;;;;;;13.55;10.15;;;;;;;;;;5074446;28;47009;-79
2021/04/28 13:31:53;;;;;;;12.02;9.55;;;;;;;;;;5079223;28;37665;-80
2021/04/28 13:34:30;;;;;;;13.23;10.10;;;;;;;;;;5077045;28;36781;-79
2021/04/28 13:36:58;;;;;;;13.93;10.48;;;;;;;;;;5082852;28;40285;-79
2021/04/28 13:39:29;;;;;;;12.98;9.70;;;;;;;;;;5069930;28;40646;-80
2021/04/28 13:42:03;;;;;;;12.52;9.73;;;;;;;;;;5073801;28;38265;-80
2021/04/28 13:44:30;;;;;;;13.80;10.00;;;;;;;;;;5085383;28;48004;-79
2021/04/28 13:46:57;;;;;;;14.32;10.85;;;;;;;;;;5083060;28;39779;-79
2021/04/28 13:49:24;;;;;;;12.95;9.65;;;;;;;;;;5079312;28;39528;-79
2021/04/28 13:51:55;;;;;;;13.35;9.40;;;;;;;;;;5063463;28;38983;-79
2021/04/28 13:54:21;;;;;;;13.45;10.27;;;;;;;;;;5065844;28;35596;-79
2021/04/28 13:56:49;;;;;;;14.52;9.55;;;;;;;;;;5084724;28;37866;-79
2021/04/28 13:59:16;;;;;;;14.43;10.07;;;;;;;;;;5078031;28;40166;-79
2021/04/28 14:01:43;;;;;;;14.25;10.48;;;;;;;;;;5080943;28;39592;-79
2021/04/28 14:04:09;;;;;;;16.15;10.65;;;;;;;;;;5059734;28;37531;-78
2021/04/28 14:06:36;;;;;;;15.13;10.13;;;;;;;;;;5074282;28;38928;-78
2021/04/28 14:09:03;;;;;;;11.35;9.98;;;;;;;;;;5079909;28;39985;-78
2021/04/28 14:11:30;;;;;;;15.88;11.07;;;;;;;;;;5061158;28;37587;-78
2021/04/28 14:13:56;;;;;;;16.38;10.70;;;;;;;;;;5081331;28;37085;-79
2021/04/28 14:16:22;;;;;;;14.20;10.13;;;;;;;;;;5083009;28;38506;-79
2021/04/28 14:18:49;;;;;;;12.60;9.73;;;;;;;;;;5084605;28;39835;-78
2021/04/28 14:21:16;;;;;;;12.63;9.75;;;;;;;;;;5048785;28;39452;-78
2021/04/28 14:23:43;;;;;;;13.43;10.70;;;;;;;;;;5074058;28;36836;-78
2021/04/28 14:26:09;;;;;;;18.75;10.10;;;;;;;;;;5064118;28;37713;-79
2021/04/28 14:28:36;;;;;;;15.73;10.20;;;;;;;;;;5080660;28;39232;-79
2021/04/28 14:31:03;;;;;;;15.65;9.88;;;;;;;;;;5069241;28;37648;-79
2021/04/28 14:33:30;;;;;;;15.90;10.35;;;;;;;;;;5058182;28;37696;-79
2021/04/28 14:35:56;;;;;;;15.95;10.45;;;;;;;;;;5070469;28;40603;-79
2021/04/28 14:38:25;;;;;;;13.68;9.75;;;;;;;;;;5078302;28;39181;-79
2021/04/28 14:40:52;;;;;;;13.63;10.25;;;;;;;;;;5073383;28;38086;-79
2021/04/28 14:43:18;;;;;;;18.90;10.52;;;;;;;;;;5084679;28;35933;-79
2021/04/28 14:45:45;;;;;;;14.60;9.98;;;;;;;;;;5065902;28;40623;-79
2021/04/28 14:48:12;;;;;;;18.92;10.30;;;;;;;;;;5062493;28;37815;-79
2021/04/28 14:50:38;;;;;;;16.88;9.40;;;;;;;;;;5067677;28;39438;-80
2021/04/28 14:53:05;;;;;;;12.23;9.95;;;;;;;;;;5089202;28;37383;-80